sensor_id;sensor_type;location;lat;lon;timestamp;temperature;humidity
24338;DHT22;12457;50.832;4.346;2022-08-01T00:01:49;21.70;35.20
24338;DHT22;12457;50.832;4.346;2022-08-01T00:04:15;21.70;32.00
24338;DHT22;12457;50.832;4.346;2022-08-01T00:06:41;21.80;30.60
24338;DHT22;12457;50.832;4.346;2022-08-01T00:09:07;21.80;27.70
24338;DHT22;12457;50.832;4.346;2022-08-01T00:11:33;21.80;30.00
24338;DHT22;12457;50.832;4.346;2022-08-01T00:14:02;21.70;32.20
24338;DHT22;12457;50.832;4.346;2022-08-01T00:16:27;21.60;40.30
24338;DHT22;12457;50.832;4.346;2022-08-01T00:18:53;21.60;38.80
24338;DHT22;12457;50.832;4.346;2022-08-01T00:21:19;21.50;42.80
24338;DHT22;12457;50.832;4.346;2022-08-01T00:23:45;21.40;46.50
24338;DHT22;12457;50.832;4.346;2022-08-01T00:26:12;21.50;46.80
24338;DHT22;12457;50.832;4.346;2022-08-01T00:28:38;21.50;47.10
24338;DHT22;12457;50.832;4.346;2022-08-01T00:31:03;21.60;46.20
24338;DHT22;12457;50.832;4.346;2022-08-01T00:33:31;21.60;43.20
24338;DHT22;12457;50.832;4.346;2022-08-01T00:35:57;21.70;38.60
24338;DHT22;12457;50.832;4.346;2022-08-01T00:38:23;21.80;37.50
24338;DHT22;12457;50.832;4.346;2022-08-01T00:40:49;21.80;37.30
24338;DHT22;12457;50.832;4.346;2022-08-01T00:43:15;21.70;39.20
24338;DHT22;12457;50.832;4.346;2022-08-01T00:45:41;21.50;42.50
24338;DHT22;12457;50.832;4.346;2022-08-01T00:48:07;21.50;47.90
24338;DHT22;12457;50.832;4.346;2022-08-01T00:50:33;21.50;46.80
24338;DHT22;12457;50.832;4.346;2022-08-01T00:53:00;21.50;48.00
24338;DHT22;12457;50.832;4.346;2022-08-01T00:55:28;21.50;47.50
24338;DHT22;12457;50.832;4.346;2022-08-01T00:57:55;21.60;45.60
24338;DHT22;12457;50.832;4.346;2022-08-01T01:00:21;21.50;46.80
24338;DHT22;12457;50.832;4.346;2022-08-01T01:02:47;21.50;47.00
24338;DHT22;12457;50.832;4.346;2022-08-01T01:05:13;21.50;46.40
24338;DHT22;12457;50.832;4.346;2022-08-01T01:07:50;21.60;44.40
24338;DHT22;12457;50.832;4.346;2022-08-01T01:13:05;21.40;50.40
24338;DHT22;12457;50.832;4.346;2022-08-01T01:16:00;21.40;50.30
24338;DHT22;12457;50.832;4.346;2022-08-01T01:18:34;21.20;54.90
24338;DHT22;12457;50.832;4.346;2022-08-01T01:26:52;21.20;57.90
24338;DHT22;12457;50.832;4.346;2022-08-01T01:29:30;21.20;58.50
24338;DHT22;12457;50.832;4.346;2022-08-01T01:34:37;21.10;64.10
24338;DHT22;12457;50.832;4.346;2022-08-01T01:37:09;21.20;61.50
24338;DHT22;12457;50.832;4.346;2022-08-01T01:39:37;20.90;70.50
24338;DHT22;12457;50.832;4.346;2022-08-01T01:42:05;20.90;73.80
24338;DHT22;12457;50.832;4.346;2022-08-01T01:44:32;20.90;74.30
24338;DHT22;12457;50.832;4.346;2022-08-01T01:46:59;20.90;73.80
24338;DHT22;12457;50.832;4.346;2022-08-01T01:49:26;20.80;78.70
24338;DHT22;12457;50.832;4.346;2022-08-01T01:51:54;20.80;75.70
24338;DHT22;12457;50.832;4.346;2022-08-01T01:54:22;21.10;70.70
24338;DHT22;12457;50.832;4.346;2022-08-01T01:56:50;21.10;69.40
24338;DHT22;12457;50.832;4.346;2022-08-01T01:59:24;21.10;69.40
24338;DHT22;12457;50.832;4.346;2022-08-01T02:01:52;21.00;71.20
24338;DHT22;12457;50.832;4.346;2022-08-01T02:04:19;21.10;71.50
24338;DHT22;12457;50.832;4.346;2022-08-01T02:06:46;21.00;72.20
24338;DHT22;12457;50.832;4.346;2022-08-01T02:09:16;21.20;69.10
24338;DHT22;12457;50.832;4.346;2022-08-01T02:11:44;21.10;70.00
24338;DHT22;12457;50.832;4.346;2022-08-01T02:14:11;21.00;73.60
24338;DHT22;12457;50.832;4.346;2022-08-01T02:16:40;20.80;75.80
24338;DHT22;12457;50.832;4.346;2022-08-01T02:19:07;20.60;85.20
24338;DHT22;12457;50.832;4.346;2022-08-01T02:21:41;20.70;84.30
24338;DHT22;12457;50.832;4.346;2022-08-01T02:24:32;20.90;78.80
24338;DHT22;12457;50.832;4.346;2022-08-01T02:27:02;20.90;79.50
24338;DHT22;12457;50.832;4.346;2022-08-01T02:29:45;20.90;78.10
24338;DHT22;12457;50.832;4.346;2022-08-01T02:32:16;20.90;78.00
24338;DHT22;12457;50.832;4.346;2022-08-01T02:34:46;20.90;76.50
24338;DHT22;12457;50.832;4.346;2022-08-01T02:37:13;21.00;74.70
24338;DHT22;12457;50.832;4.346;2022-08-01T02:39:40;20.90;78.10
24338;DHT22;12457;50.832;4.346;2022-08-01T02:42:07;20.90;76.20
24338;DHT22;12457;50.832;4.346;2022-08-01T02:44:38;20.90;77.70
24338;DHT22;12457;50.832;4.346;2022-08-01T02:47:07;20.90;78.80
24338;DHT22;12457;50.832;4.346;2022-08-01T02:49:42;20.90;77.00
24338;DHT22;12457;50.832;4.346;2022-08-01T02:52:12;20.80;82.30
24338;DHT22;12457;50.832;4.346;2022-08-01T02:54:38;20.70;85.80
24338;DHT22;12457;50.832;4.346;2022-08-01T02:57:06;21.00;80.90
24338;DHT22;12457;50.832;4.346;2022-08-01T02:59:35;21.00;77.10
24338;DHT22;12457;50.832;4.346;2022-08-01T03:02:03;21.00;73.90
24338;DHT22;12457;50.832;4.346;2022-08-01T03:04:33;21.00;74.90
24338;DHT22;12457;50.832;4.346;2022-08-01T03:07:00;20.90;76.30
24338;DHT22;12457;50.832;4.346;2022-08-01T03:09:27;20.90;77.90
24338;DHT22;12457;50.832;4.346;2022-08-01T03:11:56;21.00;75.70
24338;DHT22;12457;50.832;4.346;2022-08-01T03:14:24;20.90;77.40
24338;DHT22;12457;50.832;4.346;2022-08-01T03:16:54;20.90;77.50
24338;DHT22;12457;50.832;4.346;2022-08-01T03:19:24;21.00;76.20
24338;DHT22;12457;50.832;4.346;2022-08-01T03:21:52;21.00;74.00
24338;DHT22;12457;50.832;4.346;2022-08-01T03:24:18;21.00;75.20
24338;DHT22;12457;50.832;4.346;2022-08-01T03:26:45;21.00;76.50
24338;DHT22;12457;50.832;4.346;2022-08-01T03:29:16;21.10;75.00
24338;DHT22;12457;50.832;4.346;2022-08-01T03:31:44;20.90;78.80
24338;DHT22;12457;50.832;4.346;2022-08-01T03:34:11;20.90;81.60
24338;DHT22;12457;50.832;4.346;2022-08-01T03:36:49;20.50;91.20
24338;DHT22;12457;50.832;4.346;2022-08-01T03:39:19;20.40;93.40
24338;DHT22;12457;50.832;4.346;2022-08-01T03:41:53;20.20;96.80
24338;DHT22;12457;50.832;4.346;2022-08-01T03:44:24;20.00;99.50
24338;DHT22;12457;50.832;4.346;2022-08-01T03:46:56;20.10;99.90
24338;DHT22;12457;50.832;4.346;2022-08-01T03:49:27;20.10;99.70
24338;DHT22;12457;50.832;4.346;2022-08-01T03:51:54;20.20;99.90
24338;DHT22;12457;50.832;4.346;2022-08-01T03:54:23;20.30;99.40
24338;DHT22;12457;50.832;4.346;2022-08-01T03:56:50;20.40;98.60
24338;DHT22;12457;50.832;4.346;2022-08-01T03:59:18;20.50;97.60
24338;DHT22;12457;50.832;4.346;2022-08-01T04:01:45;20.50;97.60
24338;DHT22;12457;50.832;4.346;2022-08-01T04:04:12;20.40;99.40
24338;DHT22;12457;50.832;4.346;2022-08-01T04:06:42;20.20;99.90
24338;DHT22;12457;50.832;4.346;2022-08-01T04:09:13;20.30;99.90
24338;DHT22;12457;50.832;4.346;2022-08-01T04:11:39;20.20;99.90
24338;DHT22;12457;50.832;4.346;2022-08-01T04:14:05;20.20;99.90
24338;DHT22;12457;50.832;4.346;2022-08-01T04:16:30;20.30;99.90
24338;DHT22;12457;50.832;4.346;2022-08-01T04:18:56;20.20;99.90
24338;DHT22;12457;50.832;4.346;2022-08-01T04:21:25;20.00;99.90
24338;DHT22;12457;50.832;4.346;2022-08-01T04:23:56;20.00;99.90
24338;DHT22;12457;50.832;4.346;2022-08-01T04:26:24;20.00;99.90
24338;DHT22;12457;50.832;4.346;2022-08-01T04:28:52;19.90;99.90
24338;DHT22;12457;50.832;4.346;2022-08-01T04:31:21;20.00;99.90
24338;DHT22;12457;50.832;4.346;2022-08-01T04:33:50;20.00;99.90
24338;DHT22;12457;50.832;4.346;2022-08-01T04:36:19;20.00;99.90
24338;DHT22;12457;50.832;4.346;2022-08-01T04:38:50;20.10;99.90
24338;DHT22;12457;50.832;4.346;2022-08-01T04:41:18;20.10;99.90
24338;DHT22;12457;50.832;4.346;2022-08-01T04:43:45;20.10;99.90
24338;DHT22;12457;50.832;4.346;2022-08-01T04:46:13;20.10;99.90
24338;DHT22;12457;50.832;4.346;2022-08-01T04:48:39;19.90;99.90
24338;DHT22;12457;50.832;4.346;2022-08-01T04:51:15;19.90;99.90
24338;DHT22;12457;50.832;4.346;2022-08-01T04:53:41;19.90;99.90
24338;DHT22;12457;50.832;4.346;2022-08-01T04:56:07;19.80;99.90
24338;DHT22;12457;50.832;4.346;2022-08-01T04:58:32;19.50;99.90
24338;DHT22;12457;50.832;4.346;2022-08-01T05:00:58;19.50;99.90
24338;DHT22;12457;50.832;4.346;2022-08-01T05:03:24;19.40;99.90
24338;DHT22;12457;50.832;4.346;2022-08-01T05:05:49;19.40;99.90
24338;DHT22;12457;50.832;4.346;2022-08-01T05:08:15;19.40;99.90
24338;DHT22;12457;50.832;4.346;2022-08-01T05:10:42;19.30;99.90
24338;DHT22;12457;50.832;4.346;2022-08-01T05:13:08;19.30;99.90
24338;DHT22;12457;50.832;4.346;2022-08-01T05:15:37;19.40;99.90
24338;DHT22;12457;50.832;4.346;2022-08-01T05:18:03;19.30;99.90
24338;DHT22;12457;50.832;4.346;2022-08-01T05:20:28;19.40;99.90
24338;DHT22;12457;50.832;4.346;2022-08-01T05:22:54;19.40;99.90
24338;DHT22;12457;50.832;4.346;2022-08-01T05:25:20;19.40;99.90
24338;DHT22;12457;50.832;4.346;2022-08-01T05:27:45;19.40;99.90
24338;DHT22;12457;50.832;4.346;2022-08-01T05:30:11;19.40;99.90
24338;DHT22;12457;50.832;4.346;2022-08-01T05:32:37;19.40;99.90
24338;DHT22;12457;50.832;4.346;2022-08-01T05:35:03;19.50;99.90
24338;DHT22;12457;50.832;4.346;2022-08-01T05:37:29;19.60;99.90
24338;DHT22;12457;50.832;4.346;2022-08-01T05:39:55;19.70;99.90
24338;DHT22;12457;50.832;4.346;2022-08-01T05:42:21;19.60;99.90
24338;DHT22;12457;50.832;4.346;2022-08-01T05:44:46;19.70;99.90
24338;DHT22;12457;50.832;4.346;2022-08-01T05:47:13;19.70;99.90
24338;DHT22;12457;50.832;4.346;2022-08-01T05:49:39;19.70;99.90
24338;DHT22;12457;50.832;4.346;2022-08-01T05:52:04;19.80;99.90
24338;DHT22;12457;50.832;4.346;2022-08-01T05:54:30;19.70;99.90
24338;DHT22;12457;50.832;4.346;2022-08-01T05:56:56;19.70;99.90
24338;DHT22;12457;50.832;4.346;2022-08-01T05:59:25;19.70;99.90
24338;DHT22;12457;50.832;4.346;2022-08-01T06:01:52;19.80;99.90
24338;DHT22;12457;50.832;4.346;2022-08-01T06:04:17;19.90;99.90
24338;DHT22;12457;50.832;4.346;2022-08-01T06:06:43;20.00;99.90
24338;DHT22;12457;50.832;4.346;2022-08-01T06:09:08;20.00;99.90
24338;DHT22;12457;50.832;4.346;2022-08-01T06:11:34;20.20;99.90
24338;DHT22;12457;50.832;4.346;2022-08-01T06:14:00;20.40;99.90
24338;DHT22;12457;50.832;4.346;2022-08-01T06:16:25;20.60;99.90
24338;DHT22;12457;50.832;4.346;2022-08-01T06:18:51;20.70;99.90
24338;DHT22;12457;50.832;4.346;2022-08-01T06:21:17;20.70;99.90
24338;DHT22;12457;50.832;4.346;2022-08-01T06:23:42;20.70;99.90
24338;DHT22;12457;50.832;4.346;2022-08-01T06:26:09;20.80;99.90
24338;DHT22;12457;50.832;4.346;2022-08-01T06:28:35;20.70;99.90
24338;DHT22;12457;50.832;4.346;2022-08-01T06:31:00;20.70;99.90
24338;DHT22;12457;50.832;4.346;2022-08-01T06:33:27;20.90;99.90
24338;DHT22;12457;50.832;4.346;2022-08-01T06:35:53;21.10;98.10
24338;DHT22;12457;50.832;4.346;2022-08-01T06:38:19;21.30;98.10
24338;DHT22;12457;50.832;4.346;2022-08-01T06:40:44;21.50;95.90
24338;DHT22;12457;50.832;4.346;2022-08-01T06:43:10;21.70;94.40
24338;DHT22;12457;50.832;4.346;2022-08-01T06:45:38;21.80;93.40
24338;DHT22;12457;50.832;4.346;2022-08-01T06:48:04;21.90;93.20
24338;DHT22;12457;50.832;4.346;2022-08-01T06:50:30;22.00;91.50
24338;DHT22;12457;50.832;4.346;2022-08-01T06:52:57;22.10;91.10
24338;DHT22;12457;50.832;4.346;2022-08-01T06:55:22;22.20;86.90
24338;DHT22;12457;50.832;4.346;2022-08-01T06:57:50;22.30;85.70
24338;DHT22;12457;50.832;4.346;2022-08-01T07:00:17;22.50;88.90
24338;DHT22;12457;50.832;4.346;2022-08-01T07:02:46;22.70;84.80
24338;DHT22;12457;50.832;4.346;2022-08-01T07:05:12;22.90;77.80
24338;DHT22;12457;50.832;4.346;2022-08-01T07:07:40;23.20;68.30
24338;DHT22;12457;50.832;4.346;2022-08-01T07:10:06;23.30;68.60
24338;DHT22;12457;50.832;4.346;2022-08-01T07:12:34;23.30;59.10
24338;DHT22;12457;50.832;4.346;2022-08-01T07:15:03;23.40;57.50
24338;DHT22;12457;50.832;4.346;2022-08-01T07:17:29;23.30;62.00
24338;DHT22;12457;50.832;4.346;2022-08-01T07:19:55;23.20;66.40
24338;DHT22;12457;50.832;4.346;2022-08-01T07:22:24;23.50;58.10
24338;DHT22;12457;50.832;4.346;2022-08-01T07:24:49;23.50;58.90
24338;DHT22;12457;50.832;4.346;2022-08-01T07:27:15;23.60;53.80
24338;DHT22;12457;50.832;4.346;2022-08-01T07:29:41;23.70;46.10
24338;DHT22;12457;50.832;4.346;2022-08-01T07:32:07;23.60;44.20
24338;DHT22;12457;50.832;4.346;2022-08-01T07:34:39;23.60;53.20
24338;DHT22;12457;50.832;4.346;2022-08-01T07:37:07;23.80;45.80
24338;DHT22;12457;50.832;4.346;2022-08-01T07:39:33;24.00;37.80
24338;DHT22;12457;50.832;4.346;2022-08-01T07:41:59;24.00;43.90
24338;DHT22;12457;50.832;4.346;2022-08-01T07:44:24;23.60;43.40
24338;DHT22;12457;50.832;4.346;2022-08-01T07:46:50;23.80;37.70
24338;DHT22;12457;50.832;4.346;2022-08-01T07:49:16;23.90;14.10
24338;DHT22;12457;50.832;4.346;2022-08-01T07:51:42;23.80;2.90
24338;DHT22;12457;50.832;4.346;2022-08-01T07:54:07;23.60;1.00
24338;DHT22;12457;50.832;4.346;2022-08-01T07:56:34;23.80;11.70
24338;DHT22;12457;50.832;4.346;2022-08-01T07:59:00;24.40;1.00
24338;DHT22;12457;50.832;4.346;2022-08-01T08:01:25;24.60;1.00
24338;DHT22;12457;50.832;4.346;2022-08-01T08:03:54;24.50;1.00
24338;DHT22;12457;50.832;4.346;2022-08-01T08:06:20;24.20;1.00
24338;DHT22;12457;50.832;4.346;2022-08-01T08:08:47;24.20;1.00
24338;DHT22;12457;50.832;4.346;2022-08-01T08:11:12;24.40;1.00
24338;DHT22;12457;50.832;4.346;2022-08-01T08:13:38;24.40;1.00
24338;DHT22;12457;50.832;4.346;2022-08-01T08:16:04;24.60;1.00
24338;DHT22;12457;50.832;4.346;2022-08-01T08:18:30;24.90;1.00
24338;DHT22;12457;50.832;4.346;2022-08-01T08:20:55;25.30;1.00
24338;DHT22;12457;50.832;4.346;2022-08-01T08:23:21;25.80;1.00
24338;DHT22;12457;50.832;4.346;2022-08-01T08:26:09;25.60;1.00
24338;DHT22;12457;50.832;4.346;2022-08-01T08:28:40;25.00;1.00
24338;DHT22;12457;50.832;4.346;2022-08-01T08:31:07;24.70;1.00
24338;DHT22;12457;50.832;4.346;2022-08-01T08:33:33;24.40;1.00
24338;DHT22;12457;50.832;4.346;2022-08-01T08:35:59;24.30;1.00
24338;DHT22;12457;50.832;4.346;2022-08-01T08:38:24;24.10;1.00
24338;DHT22;12457;50.832;4.346;2022-08-01T08:40:52;24.30;1.00
24338;DHT22;12457;50.832;4.346;2022-08-01T08:43:18;24.10;1.00
24338;DHT22;12457;50.832;4.346;2022-08-01T08:45:46;24.30;1.00
24338;DHT22;12457;50.832;4.346;2022-08-01T08:48:20;24.80;1.00
24338;DHT22;12457;50.832;4.346;2022-08-01T08:50:48;25.00;1.00
24338;DHT22;12457;50.832;4.346;2022-08-01T08:53:14;24.80;1.00
24338;DHT22;12457;50.832;4.346;2022-08-01T08:55:42;24.40;1.00
24338;DHT22;12457;50.832;4.346;2022-08-01T08:58:15;24.30;1.00
24338;DHT22;12457;50.832;4.346;2022-08-01T09:00:43;24.70;1.00
24338;DHT22;12457;50.832;4.346;2022-08-01T09:03:08;24.80;1.00
24338;DHT22;12457;50.832;4.346;2022-08-01T09:05:34;24.90;1.00
24338;DHT22;12457;50.832;4.346;2022-08-01T09:08:00;24.90;1.00
24338;DHT22;12457;50.832;4.346;2022-08-01T09:10:25;24.90;1.00
24338;DHT22;12457;50.832;4.346;2022-08-01T09:15:46;25.50;1.00
24338;DHT22;12457;50.832;4.346;2022-08-01T09:18:32;25.90;99.90
24338;DHT22;12457;50.832;4.346;2022-08-01T09:23:43;25.90;99.90
24338;DHT22;12457;50.832;4.346;2022-08-01T09:26:13;25.80;99.90
24338;DHT22;12457;50.832;4.346;2022-08-01T09:28:40;25.40;99.90
24338;DHT22;12457;50.832;4.346;2022-08-01T09:31:11;25.30;99.90
24338;DHT22;12457;50.832;4.346;2022-08-01T09:33:56;25.20;1.00
24338;DHT22;12457;50.832;4.346;2022-08-01T09:36:24;25.10;1.00
24338;DHT22;12457;50.832;4.346;2022-08-01T09:38:52;24.80;1.00
24338;DHT22;12457;50.832;4.346;2022-08-01T09:41:29;24.60;1.00
24338;DHT22;12457;50.832;4.346;2022-08-01T09:43:55;24.40;1.00
24338;DHT22;12457;50.832;4.346;2022-08-01T09:46:21;24.30;1.00
24338;DHT22;12457;50.832;4.346;2022-08-01T09:48:59;24.50;1.00
24338;DHT22;12457;50.832;4.346;2022-08-01T09:51:33;24.70;1.00
24338;DHT22;12457;50.832;4.346;2022-08-01T09:54:00;24.80;1.00
24338;DHT22;12457;50.832;4.346;2022-08-01T09:56:39;24.90;1.00
24338;DHT22;12457;50.832;4.346;2022-08-01T09:59:11;25.30;99.90
24338;DHT22;12457;50.832;4.346;2022-08-01T10:01:47;26.00;99.90
24338;DHT22;12457;50.832;4.346;2022-08-01T10:04:15;26.40;1.00
24338;DHT22;12457;50.832;4.346;2022-08-01T10:06:43;26.70;99.90
24338;DHT22;12457;50.832;4.346;2022-08-01T10:09:10;27.10;15.60
24338;DHT22;12457;50.832;4.346;2022-08-01T10:11:42;27.30;1.00
24338;DHT22;12457;50.832;4.346;2022-08-01T10:14:09;27.40;99.90
24338;DHT22;12457;50.832;4.346;2022-08-01T10:16:36;27.20;99.90
24338;DHT22;12457;50.832;4.346;2022-08-01T10:19:06;27.00;99.90
24338;DHT22;12457;50.832;4.346;2022-08-01T10:21:33;26.70;99.90
24338;DHT22;12457;50.832;4.346;2022-08-01T10:24:01;26.50;99.90
24338;DHT22;12457;50.832;4.346;2022-08-01T10:26:29;26.60;1.00
24338;DHT22;12457;50.832;4.346;2022-08-01T10:28:57;26.80;99.90
24338;DHT22;12457;50.832;4.346;2022-08-01T10:31:24;26.90;99.90
24338;DHT22;12457;50.832;4.346;2022-08-01T10:33:50;27.20;99.90
24338;DHT22;12457;50.832;4.346;2022-08-01T10:36:18;27.40;99.90
24338;DHT22;12457;50.832;4.346;2022-08-01T10:38:46;27.90;1.00
24338;DHT22;12457;50.832;4.346;2022-08-01T10:41:22;28.30;99.90
24338;DHT22;12457;50.832;4.346;2022-08-01T10:43:58;28.30;1.00
24338;DHT22;12457;50.832;4.346;2022-08-01T10:46:24;28.00;1.00
24338;DHT22;12457;50.832;4.346;2022-08-01T10:51:19;27.60;82.50
24338;DHT22;12457;50.832;4.346;2022-08-01T10:53:48;27.50;1.00
24338;DHT22;12457;50.832;4.346;2022-08-01T10:56:15;27.90;1.00
24338;DHT22;12457;50.832;4.346;2022-08-01T10:58:43;27.90;1.00
24338;DHT22;12457;50.832;4.346;2022-08-01T11:01:29;27.60;99.90
24338;DHT22;12457;50.832;4.346;2022-08-01T11:09:02;26.90;99.90
24338;DHT22;12457;50.832;4.346;2022-08-01T11:11:28;27.00;1.00
24338;DHT22;12457;50.832;4.346;2022-08-01T11:14:00;27.40;99.90
24338;DHT22;12457;50.832;4.346;2022-08-01T11:16:43;27.20;99.90
24338;DHT22;12457;50.832;4.346;2022-08-01T11:19:09;27.00;58.40
24338;DHT22;12457;50.832;4.346;2022-08-01T11:29:43;28.40;99.90
24338;DHT22;12457;50.832;4.346;2022-08-01T11:32:27;27.80;99.90
24338;DHT22;12457;50.832;4.346;2022-08-01T11:34:56;27.80;99.90
24338;DHT22;12457;50.832;4.346;2022-08-01T11:37:25;27.90;99.90
24338;DHT22;12457;50.832;4.346;2022-08-01T11:42:42;27.30;1.00
24338;DHT22;12457;50.832;4.346;2022-08-01T11:45:08;27.30;1.00
24338;DHT22;12457;50.832;4.346;2022-08-01T11:53:05;26.70;1.00
24338;DHT22;12457;50.832;4.346;2022-08-01T11:55:37;26.60;1.00
24338;DHT22;12457;50.832;4.346;2022-08-01T11:58:09;26.70;1.00
24338;DHT22;12457;50.832;4.346;2022-08-01T12:00:35;27.10;1.00
24338;DHT22;12457;50.832;4.346;2022-08-01T12:03:08;27.10;99.90
24338;DHT22;12457;50.832;4.346;2022-08-01T12:05:35;27.10;99.90
24338;DHT22;12457;50.832;4.346;2022-08-01T12:08:04;27.10;99.90
24338;DHT22;12457;50.832;4.346;2022-08-01T12:10:35;27.00;99.90
24338;DHT22;12457;50.832;4.346;2022-08-01T12:13:06;27.10;99.90
24338;DHT22;12457;50.832;4.346;2022-08-01T12:15:36;27.40;41.20
24338;DHT22;12457;50.832;4.346;2022-08-01T12:18:04;27.70;1.00
24338;DHT22;12457;50.832;4.346;2022-08-01T12:20:37;28.00;99.90
24338;DHT22;12457;50.832;4.346;2022-08-01T12:23:08;28.10;99.90
24338;DHT22;12457;50.832;4.346;2022-08-01T12:25:35;28.40;43.50
24338;DHT22;12457;50.832;4.346;2022-08-01T12:28:06;28.50;99.90
24338;DHT22;12457;50.832;4.346;2022-08-01T12:30:34;28.70;99.90
24338;DHT22;12457;50.832;4.346;2022-08-01T12:33:08;28.70;99.90
24338;DHT22;12457;50.832;4.346;2022-08-01T12:35:36;28.70;99.90
24338;DHT22;12457;50.832;4.346;2022-08-01T12:38:07;28.70;99.90
24338;DHT22;12457;50.832;4.346;2022-08-01T12:40:41;28.70;99.90
24338;DHT22;12457;50.832;4.346;2022-08-01T12:43:19;28.90;99.90
24338;DHT22;12457;50.832;4.346;2022-08-01T12:45:48;29.40;99.90
24338;DHT22;12457;50.832;4.346;2022-08-01T12:48:16;29.90;1.00
24338;DHT22;12457;50.832;4.346;2022-08-01T12:50:47;29.80;99.90
24338;DHT22;12457;50.832;4.346;2022-08-01T12:53:14;29.40;99.90
24338;DHT22;12457;50.832;4.346;2022-08-01T12:55:59;29.30;99.90
24338;DHT22;12457;50.832;4.346;2022-08-01T12:58:33;29.30;1.00
24338;DHT22;12457;50.832;4.346;2022-08-01T13:01:07;29.00;1.00
24338;DHT22;12457;50.832;4.346;2022-08-01T13:03:32;29.40;95.80
24338;DHT22;12457;50.832;4.346;2022-08-01T13:05:58;29.20;99.90
24338;DHT22;12457;50.832;4.346;2022-08-01T13:08:34;28.60;99.90
24338;DHT22;12457;50.832;4.346;2022-08-01T13:11:05;28.20;1.00
24338;DHT22;12457;50.832;4.346;2022-08-01T13:13:40;28.20;28.30
24338;DHT22;12457;50.832;4.346;2022-08-01T13:16:06;28.30;97.10
24338;DHT22;12457;50.832;4.346;2022-08-01T13:18:33;28.10;99.90
24338;DHT22;12457;50.832;4.346;2022-08-01T13:21:15;28.10;99.90
24338;DHT22;12457;50.832;4.346;2022-08-01T13:23:59;28.10;99.90
24338;DHT22;12457;50.832;4.346;2022-08-01T13:26:57;27.70;99.90
24338;DHT22;12457;50.832;4.346;2022-08-01T13:29:43;27.50;99.90
24338;DHT22;12457;50.832;4.346;2022-08-01T13:32:17;27.30;1.00
24338;DHT22;12457;50.832;4.346;2022-08-01T13:34:43;27.60;1.00
24338;DHT22;12457;50.832;4.346;2022-08-01T13:37:09;27.10;99.90
24338;DHT22;12457;50.832;4.346;2022-08-01T13:39:34;26.90;1.00
24338;DHT22;12457;50.832;4.346;2022-08-01T13:42:09;26.60;99.90
24338;DHT22;12457;50.832;4.346;2022-08-01T13:44:35;26.70;99.90
24338;DHT22;12457;50.832;4.346;2022-08-01T13:47:04;26.70;99.90
24338;DHT22;12457;50.832;4.346;2022-08-01T13:49:30;27.10;99.90
24338;DHT22;12457;50.832;4.346;2022-08-01T13:51:58;27.30;1.00
24338;DHT22;12457;50.832;4.346;2022-08-01T13:54:25;27.70;99.90
24338;DHT22;12457;50.832;4.346;2022-08-01T13:56:51;27.60;99.90
24338;DHT22;12457;50.832;4.346;2022-08-01T13:59:17;27.60;61.30
24338;DHT22;12457;50.832;4.346;2022-08-01T14:01:44;27.50;1.00
24338;DHT22;12457;50.832;4.346;2022-08-01T14:04:15;27.50;31.70
24338;DHT22;12457;50.832;4.346;2022-08-01T14:06:41;27.20;48.30
24338;DHT22;12457;50.832;4.346;2022-08-01T14:09:07;27.20;53.10
24338;DHT22;12457;50.832;4.346;2022-08-01T14:11:33;27.30;96.40
24338;DHT22;12457;50.832;4.346;2022-08-01T14:13:58;27.60;1.00
24338;DHT22;12457;50.832;4.346;2022-08-01T14:16:28;27.70;1.00
24338;DHT22;12457;50.832;4.346;2022-08-01T14:18:56;28.00;1.00
24338;DHT22;12457;50.832;4.346;2022-08-01T14:21:22;28.30;99.90
24338;DHT22;12457;50.832;4.346;2022-08-01T14:23:59;27.50;99.90
24338;DHT22;12457;50.832;4.346;2022-08-01T14:26:27;27.50;99.90
24338;DHT22;12457;50.832;4.346;2022-08-01T14:28:53;27.30;99.90
24338;DHT22;12457;50.832;4.346;2022-08-01T14:31:19;27.20;99.90
24338;DHT22;12457;50.832;4.346;2022-08-01T14:33:44;27.10;1.00
24338;DHT22;12457;50.832;4.346;2022-08-01T14:36:11;27.10;99.90
24338;DHT22;12457;50.832;4.346;2022-08-01T14:38:36;27.30;99.90
24338;DHT22;12457;50.832;4.346;2022-08-01T14:41:02;27.70;99.90
24338;DHT22;12457;50.832;4.346;2022-08-01T14:43:29;27.80;99.90
24338;DHT22;12457;50.832;4.346;2022-08-01T14:45:58;27.90;99.90
24338;DHT22;12457;50.832;4.346;2022-08-01T14:48:23;28.10;99.90
24338;DHT22;12457;50.832;4.346;2022-08-01T14:50:52;28.10;99.90
24338;DHT22;12457;50.832;4.346;2022-08-01T14:53:18;27.70;99.90
24338;DHT22;12457;50.832;4.346;2022-08-01T14:55:44;27.60;99.90
24338;DHT22;12457;50.832;4.346;2022-08-01T14:58:09;27.50;99.90
24338;DHT22;12457;50.832;4.346;2022-08-01T15:00:35;27.50;99.90
24338;DHT22;12457;50.832;4.346;2022-08-01T15:03:00;27.50;99.90
24338;DHT22;12457;50.832;4.346;2022-08-01T15:05:26;27.60;99.90
24338;DHT22;12457;50.832;4.346;2022-08-01T15:07:54;27.50;99.90
24338;DHT22;12457;50.832;4.346;2022-08-01T15:10:19;27.20;99.90
24338;DHT22;12457;50.832;4.346;2022-08-01T15:12:46;27.10;99.90
24338;DHT22;12457;50.832;4.346;2022-08-01T15:15:12;27.10;99.90
24338;DHT22;12457;50.832;4.346;2022-08-01T15:17:38;27.10;99.90
24338;DHT22;12457;50.832;4.346;2022-08-01T15:20:05;26.90;99.90
24338;DHT22;12457;50.832;4.346;2022-08-01T15:22:32;26.80;99.90
24338;DHT22;12457;50.832;4.346;2022-08-01T15:25:00;26.90;99.90
24338;DHT22;12457;50.832;4.346;2022-08-01T15:27:42;26.90;99.90
24338;DHT22;12457;50.832;4.346;2022-08-01T15:30:08;27.00;99.90
24338;DHT22;12457;50.832;4.346;2022-08-01T15:32:33;26.90;99.90
24338;DHT22;12457;50.832;4.346;2022-08-01T15:34:59;26.90;99.90
24338;DHT22;12457;50.832;4.346;2022-08-01T15:37:25;26.90;99.90
24338;DHT22;12457;50.832;4.346;2022-08-01T15:39:51;26.90;99.90
24338;DHT22;12457;50.832;4.346;2022-08-01T15:42:17;27.00;99.90
24338;DHT22;12457;50.832;4.346;2022-08-01T15:44:44;27.00;99.90
24338;DHT22;12457;50.832;4.346;2022-08-01T15:47:10;26.90;99.90
24338;DHT22;12457;50.832;4.346;2022-08-01T15:49:38;27.10;99.90
24338;DHT22;12457;50.832;4.346;2022-08-01T15:52:06;27.00;99.90
24338;DHT22;12457;50.832;4.346;2022-08-01T15:54:32;27.00;99.90
24338;DHT22;12457;50.832;4.346;2022-08-01T15:57:02;27.00;99.90
24338;DHT22;12457;50.832;4.346;2022-08-01T15:59:27;26.80;99.90
24338;DHT22;12457;50.832;4.346;2022-08-01T16:01:54;26.70;99.90
24338;DHT22;12457;50.832;4.346;2022-08-01T16:04:20;26.60;99.90
24338;DHT22;12457;50.832;4.346;2022-08-01T16:06:46;26.50;99.90
24338;DHT22;12457;50.832;4.346;2022-08-01T16:09:11;26.40;99.90
24338;DHT22;12457;50.832;4.346;2022-08-01T16:11:37;26.20;99.90
24338;DHT22;12457;50.832;4.346;2022-08-01T16:14:03;26.20;99.90
24338;DHT22;12457;50.832;4.346;2022-08-01T16:16:29;26.10;99.90
24338;DHT22;12457;50.832;4.346;2022-08-01T16:18:55;26.00;99.90
24338;DHT22;12457;50.832;4.346;2022-08-01T16:21:24;25.90;1.00
24338;DHT22;12457;50.832;4.346;2022-08-01T16:23:53;25.90;1.00